createdAt,value
2019-01-26T00:00:50.451Z,666.15
2019-01-26T00:03:19.050Z,651.65
2019-01-26T00:05:47.664Z,642.58
2019-01-26T00:08:16.277Z,651.50
2019-01-26T00:10:44.891Z,658.55
2019-01-26T00:13:13.475Z,667.27
2019-01-26T00:15:42.136Z,670.88
2019-01-26T00:18:10.886Z,623.13
2019-01-26T00:20:39.664Z,647.65
2019-01-26T00:25:36.000Z,635.55
2019-01-26T00:28:04.600Z,599.83
2019-01-26T00:30:33.237Z,605.58
2019-01-26T00:33:01.823Z,572.00
2019-01-26T00:35:30.741Z,591.62
2019-01-26T00:37:59.346Z,618.40
2019-01-26T00:40:27.947Z,609.65
2019-01-26T00:42:56.552Z,566.45
2019-01-26T00:45:25.174Z,570.67
2019-01-26T00:47:53.795Z,599.98
2019-01-26T00:50:22.376Z,596.98
2019-01-26T00:52:51.022Z,566.80
2019-01-26T00:55:19.637Z,552.45
2019-01-26T00:57:48.241Z,615.33
2019-01-26T01:00:17.184Z,563.70
2019-01-26T01:02:46.118Z,547.58
2019-01-26T01:05:14.716Z,563.40
2019-01-26T01:07:43.405Z,589.63
2019-01-26T01:10:12.624Z,580.00
2019-01-26T01:12:41.300Z,545.57
2019-01-26T01:15:10.917Z,552.58
2019-01-26T01:17:39.532Z,579.30
2019-01-26T01:20:08.695Z,541.40
2019-01-26T01:22:37.339Z,559.27
2019-01-26T01:25:05.933Z,535.27
2019-01-26T01:27:34.546Z,542.20
2019-01-26T01:30:03.342Z,544.28
2019-01-26T01:32:31.943Z,530.98
2019-01-26T01:35:00.546Z,538.45
2019-01-26T01:37:29.447Z,523.80
2019-01-26T01:39:58.326Z,527.92
2019-01-26T01:42:26.945Z,543.33
2019-01-26T01:44:55.542Z,530.17
2019-01-26T01:47:24.210Z,510.85
2019-01-26T01:49:52.797Z,524.60
2019-01-26T01:52:21.391Z,526.63
2019-01-26T01:54:49.973Z,516.90
2019-01-26T01:57:18.932Z,499.42
2019-01-26T01:59:47.621Z,510.80
2019-01-26T02:02:16.246Z,500.68
2019-01-26T02:04:44.825Z,498.73
2019-01-26T02:07:13.433Z,500.40
2019-01-26T02:09:42.053Z,480.18
2019-01-26T02:12:10.666Z,511.15
2019-01-26T02:14:39.274Z,463.83
2019-01-26T02:17:07.903Z,541.15
2019-01-26T02:22:04.576Z,499.97
2019-01-26T02:24:33.164Z,495.60
2019-01-26T02:27:01.786Z,484.45
2019-01-26T02:29:30.423Z,498.58
2019-01-26T02:31:59.022Z,463.90
2019-01-26T02:34:27.797Z,491.73
2019-01-26T02:39:24.253Z,501.60
2019-01-26T02:41:52.895Z,455.63
2019-01-26T02:44:21.508Z,483.70
2019-01-26T02:46:50.116Z,468.10
2019-01-26T02:49:18.855Z,459.55
2019-01-26T02:54:15.248Z,465.05
2019-01-26T02:59:11.952Z,490.52
2019-01-26T03:01:40.536Z,474.58
2019-01-26T03:04:09.147Z,483.57
2019-01-26T03:06:37.746Z,469.13
2019-01-26T03:09:08.524Z,470.62
2019-01-26T03:11:37.153Z,441.92
2019-01-26T03:14:05.769Z,469.58
2019-01-26T03:16:34.390Z,454.98
2019-01-26T03:19:03.004Z,438.35
2019-01-26T03:21:31.568Z,451.05
2019-01-26T03:24:00.173Z,439.75
2019-01-26T03:26:28.756Z,450.12
2019-01-26T03:28:57.416Z,426.70
2019-01-26T03:31:25.998Z,426.87
2019-01-26T03:33:54.847Z,418.50
2019-01-26T03:36:23.443Z,426.05
2019-01-26T03:38:52.070Z,398.75
2019-01-26T03:41:20.679Z,431.87
2019-01-26T03:43:49.299Z,417.35
2019-01-26T03:46:17.911Z,428.95
2019-01-26T03:48:46.886Z,419.55
2019-01-26T03:51:15.494Z,430.93
2019-01-26T03:53:44.104Z,421.45
2019-01-26T03:56:12.694Z,414.40
2019-01-26T03:58:41.279Z,399.35
2019-01-26T04:01:10.135Z,437.68
2019-01-26T04:03:38.737Z,427.85
2019-01-26T04:06:07.364Z,408.18
2019-01-26T04:08:36.007Z,404.62
2019-01-26T04:11:04.582Z,418.77
2019-01-26T04:13:33.183Z,422.27
2019-01-26T04:16:01.885Z,434.07
2019-01-26T04:18:30.563Z,389.08
2019-01-26T04:20:59.117Z,396.27
2019-01-26T04:23:27.727Z,393.60
2019-01-26T04:25:56.323Z,409.93
2019-01-26T04:28:24.936Z,417.83
2019-01-26T04:30:53.805Z,411.88
2019-01-26T04:33:23.117Z,405.60
2019-01-26T04:35:51.741Z,404.83
2019-01-26T04:38:20.795Z,396.07
2019-01-26T04:40:49.440Z,405.57
2019-01-26T04:43:18.065Z,384.70
2019-01-26T04:45:46.717Z,397.67
2019-01-26T04:48:15.356Z,379.68
2019-01-26T04:50:44.364Z,395.52
2019-01-26T04:53:12.952Z,393.15
2019-01-26T04:55:41.559Z,371.37
2019-01-26T04:58:10.208Z,391.25
2019-01-26T05:00:38.940Z,374.20
2019-01-26T05:05:36.474Z,378.98
2019-01-26T05:08:05.110Z,383.02
2019-01-26T05:10:33.708Z,381.47
2019-01-26T05:13:02.593Z,387.12
2019-01-26T05:15:31.221Z,368.48
2019-01-26T05:17:59.834Z,365.00
2019-01-26T05:20:28.469Z,374.37
2019-01-26T05:22:57.137Z,337.52
2019-01-26T05:27:54.105Z,309.50
2019-01-26T05:30:29.815Z,296.45
2019-01-26T05:32:58.409Z,277.30
2019-01-26T05:35:27.008Z,286.65
2019-01-26T05:37:55.607Z,262.23
2019-01-26T05:40:24.225Z,276.52
2019-01-26T05:42:52.815Z,251.52
2019-01-26T05:45:22.160Z,256.27
2019-01-26T05:47:50.741Z,256.17
2019-01-26T05:50:21.181Z,263.18
2019-01-26T05:52:49.805Z,260.48
2019-01-26T05:57:46.660Z,239.08
2019-01-26T06:00:19.554Z,249.18
2019-01-26T06:02:48.129Z,254.90
2019-01-26T06:05:16.816Z,258.57
2019-01-26T06:10:13.244Z,241.02
2019-01-26T06:12:41.920Z,250.62
2019-01-26T06:17:39.042Z,231.68
2019-01-26T06:22:36.242Z,243.97
2019-01-26T06:25:05.442Z,237.23
2019-01-26T06:27:34.025Z,252.57
2019-01-26T06:30:02.645Z,241.05
2019-01-26T06:34:58.981Z,228.80
2019-01-26T06:37:27.603Z,241.45
2019-01-26T06:39:56.330Z,217.85
2019-01-26T06:44:55.968Z,232.57
2019-01-26T06:47:24.687Z,235.90
2019-01-26T06:49:53.370Z,222.80
2019-01-26T06:54:50.483Z,233.20
2019-01-26T06:59:47.778Z,222.67
2019-01-26T07:02:16.539Z,229.90
2019-01-26T07:07:21.214Z,223.38
2019-01-26T07:12:17.884Z,231.32
2019-01-26T07:17:14.683Z,218.80
2019-01-26T07:19:43.397Z,229.30
2019-01-26T07:24:39.854Z,215.97
2019-01-26T07:27:08.721Z,221.35
2019-01-26T07:29:37.303Z,219.45
2019-01-26T07:32:06.419Z,212.38
2019-01-26T07:34:35.017Z,216.02
2019-01-26T07:37:03.653Z,207.18
2019-01-26T07:39:32.292Z,208.72
2019-01-26T07:44:28.668Z,218.95
2019-01-26T07:46:57.262Z,218.95
2019-01-26T07:49:25.854Z,208.60
2019-01-26T07:51:54.420Z,217.43
2019-01-26T07:54:23.031Z,203.00
2019-01-26T07:56:51.932Z,194.80
2019-01-26T07:59:20.631Z,212.17
2019-01-26T08:01:49.243Z,199.07
2019-01-26T08:04:17.859Z,217.80
2019-01-26T08:06:46.482Z,195.68
2019-01-26T08:09:15.470Z,219.68
2019-01-26T08:11:44.086Z,499.68
2019-01-26T08:14:12.944Z,565.58
2019-01-26T08:16:41.706Z,671.35
2019-01-26T08:21:38.431Z,504.68
2019-01-26T08:24:07.147Z,483.77
2019-01-26T08:29:03.518Z,470.02
2019-01-26T08:31:32.114Z,458.75
2019-01-26T08:34:00.868Z,447.15
2019-01-26T08:38:57.319Z,409.03
2019-01-26T08:41:25.928Z,407.98
2019-01-26T08:43:54.554Z,397.02
2019-01-26T08:46:23.504Z,399.83
2019-01-26T08:48:52.203Z,390.40
2019-01-26T08:51:21.186Z,364.98
2019-01-26T08:53:50.181Z,345.15
2019-01-26T08:56:18.830Z,367.95
2019-01-26T08:58:47.476Z,383.65
2019-01-26T09:01:16.079Z,385.98
2019-01-26T09:03:59.297Z,319.85
2019-01-26T09:06:34.280Z,551.10
2019-01-26T09:09:03.566Z,809.07
2019-01-26T09:11:32.166Z,815.80
2019-01-26T09:14:00.777Z,969.82
2019-01-26T09:16:29.479Z,836.35
2019-01-26T09:21:26.046Z,787.33
2019-01-26T09:23:54.709Z,809.10
2019-01-26T09:26:23.656Z,494.35
2019-01-26T09:28:52.278Z,346.52
2019-01-26T09:31:21.201Z,411.95
2019-01-26T09:33:49.788Z,378.35
2019-01-26T09:36:18.482Z,371.82
2019-01-26T09:41:14.852Z,378.58
2019-01-26T09:43:43.425Z,374.95
2019-01-26T09:46:12.086Z,372.35
2019-01-26T09:48:46.197Z,376.15
2019-01-26T09:51:11.951Z,356.40
2019-01-26T09:53:40.594Z,392.13
2019-01-26T09:56:09.765Z,349.23
2019-01-26T09:58:38.531Z,320.45
2019-01-26T10:03:35.343Z,721.40
2019-01-26T10:06:04.899Z,745.90
2019-01-26T10:08:33.892Z,658.02
2019-01-26T10:11:02.670Z,622.75
2019-01-26T10:13:32.530Z,535.23
2019-01-26T10:16:01.122Z,518.70
2019-01-26T10:18:30.092Z,602.88
2019-01-26T10:20:58.950Z,570.15
2019-01-26T10:25:55.461Z,537.53
2019-01-26T10:28:24.037Z,552.58
2019-01-26T10:30:55.569Z,552.55
2019-01-26T10:33:24.267Z,547.13
2019-01-26T10:38:51.873Z,525.02
2019-01-26T10:41:45.765Z,566.90
2019-01-26T10:44:19.776Z,459.10
2019-01-26T10:46:48.519Z,461.80
2019-01-26T10:49:17.179Z,441.12
2019-01-26T10:51:45.790Z,433.07
2019-01-26T10:54:14.478Z,463.77
2019-01-26T10:56:43.171Z,442.95
2019-01-26T10:59:14.070Z,390.85
2019-01-26T11:01:42.768Z,381.15
2019-01-26T11:04:11.431Z,355.92
2019-01-26T11:06:40.155Z,367.00
2019-01-26T11:09:10.740Z,371.90
2019-01-26T11:11:39.708Z,369.68
2019-01-26T11:14:08.391Z,366.20
2019-01-26T11:16:37.268Z,357.32
2019-01-26T11:19:08.003Z,358.05
2019-01-26T11:21:36.458Z,358.75
2019-01-26T11:26:35.337Z,354.67
2019-01-26T11:29:04.256Z,316.80
2019-01-26T11:31:34.016Z,268.93
2019-01-26T11:34:02.721Z,304.32
2019-01-26T11:36:31.374Z,288.23
2019-01-26T11:39:00.143Z,290.77
2019-01-26T11:43:56.848Z,271.80
2019-01-26T11:46:38.336Z,276.37
2019-01-26T11:49:06.961Z,272.67
2019-01-26T11:54:08.267Z,269.18
2019-01-26T11:57:01.764Z,288.68
2019-01-26T11:59:31.969Z,267.93
2019-01-26T12:02:08.800Z,279.60
2019-01-26T12:04:51.575Z,540.80
2019-01-26T12:07:23.094Z,660.85
2019-01-26T12:09:51.697Z,666.38
2019-01-26T12:12:23.292Z,634.60
2019-01-26T12:14:52.044Z,598.10
2019-01-26T12:19:48.550Z,589.15
2019-01-26T12:22:17.600Z,531.00
2019-01-26T12:24:46.250Z,518.80
2019-01-26T12:27:14.843Z,483.53
2019-01-26T12:29:43.939Z,474.68
2019-01-26T12:32:12.794Z,435.73
2019-01-26T12:37:09.719Z,420.97
2019-01-26T12:39:38.308Z,415.35
2019-01-26T12:42:07.127Z,618.10
2019-01-26T12:47:05.570Z,712.10
2019-01-26T12:49:34.484Z,767.98
2019-01-26T12:52:03.574Z,694.23
2019-01-26T12:54:32.265Z,758.38
2019-01-26T12:57:01.010Z,757.02
2019-01-26T13:01:57.891Z,654.20
2019-01-26T13:04:26.798Z,629.45
2019-01-26T13:06:55.799Z,621.55
2019-01-26T13:09:24.462Z,608.95
2019-01-26T13:14:20.892Z,587.60
2019-01-26T13:19:17.663Z,586.73
2019-01-26T13:21:46.257Z,548.10
2019-01-26T13:24:14.885Z,532.95
2019-01-26T13:26:44.011Z,495.75
2019-01-26T13:29:12.788Z,487.40
2019-01-26T13:34:09.318Z,446.80
2019-01-26T13:36:37.994Z,472.27
2019-01-26T13:39:09.401Z,724.40
2019-01-26T13:41:38.441Z,691.12
2019-01-26T13:44:09.351Z,764.00
2019-01-26T13:46:38.244Z,683.85
2019-01-26T13:49:07.331Z,646.00
2019-01-26T13:51:36.008Z,634.98
2019-01-26T13:54:04.664Z,609.98
2019-01-26T13:59:22.540Z,587.85
2019-01-26T14:01:52.569Z,582.62
2019-01-26T14:04:21.177Z,571.22
2019-01-26T14:06:49.787Z,569.15
2019-01-26T14:11:46.279Z,556.57
2019-01-26T14:14:15.268Z,521.10
2019-01-26T14:16:44.572Z,548.73
2019-01-26T14:19:14.081Z,518.67
2019-01-26T14:21:42.715Z,510.32
2019-01-26T14:24:17.530Z,486.47
2019-01-26T14:26:49.768Z,481.82
2019-01-26T14:29:18.872Z,498.58
2019-01-26T14:31:47.478Z,474.05
2019-01-26T14:34:16.452Z,434.48
2019-01-26T14:36:45.087Z,436.82
2019-01-26T14:39:14.111Z,425.45
2019-01-26T14:41:43.232Z,398.05
2019-01-26T14:44:11.875Z,425.62
2019-01-26T14:46:40.461Z,417.40
2019-01-26T14:49:09.365Z,394.05
2019-01-26T14:51:38.076Z,352.02
2019-01-26T14:54:07.485Z,373.93
2019-01-26T14:56:36.120Z,355.65
2019-01-26T14:59:04.777Z,335.20
2019-01-26T15:01:33.399Z,325.45
2019-01-26T15:04:02.016Z,303.92
2019-01-26T15:06:30.598Z,306.75
2019-01-26T15:08:59.275Z,286.27
2019-01-26T15:13:55.767Z,292.65
2019-01-26T15:18:52.152Z,305.92
2019-01-26T15:21:20.780Z,303.73
2019-01-26T15:23:49.367Z,398.23
2019-01-26T15:26:18.282Z,539.97
2019-01-26T15:28:47.269Z,723.10
2019-01-26T15:31:15.904Z,764.32
2019-01-26T15:33:44.502Z,749.25
2019-01-26T15:36:13.411Z,632.33
2019-01-26T15:38:42.027Z,551.08
2019-01-26T15:41:10.655Z,520.23
2019-01-26T15:43:39.327Z,458.75
2019-01-26T15:46:08.218Z,434.90
2019-01-26T15:48:37.213Z,426.33
2019-01-26T15:51:05.962Z,415.15
2019-01-26T15:53:35.767Z,407.65
2019-01-26T15:56:04.385Z,409.52
2019-01-26T15:58:33.113Z,406.20
2019-01-26T16:03:29.481Z,390.93
2019-01-26T16:05:58.389Z,374.50
2019-01-26T16:08:27.270Z,375.62
2019-01-26T16:10:56.202Z,370.15
2019-01-26T16:13:24.935Z,340.90
2019-01-26T16:18:21.659Z,338.73
2019-01-26T16:20:50.257Z,315.82
2019-01-26T16:23:18.908Z,312.08
2019-01-26T16:25:47.579Z,274.42
2019-01-26T16:28:16.202Z,327.93
2019-01-26T16:30:45.266Z,319.10
2019-01-26T16:33:14.048Z,309.37
2019-01-26T16:38:10.752Z,293.10
2019-01-26T16:40:39.424Z,287.42
2019-01-26T16:43:08.400Z,279.02
2019-01-26T16:45:39.080Z,281.27
2019-01-26T16:48:10.281Z,281.43
2019-01-26T16:50:39.163Z,270.48
2019-01-26T16:55:35.523Z,246.50
2019-01-26T16:58:04.630Z,254.05
2019-01-26T17:00:38.461Z,255.37
2019-01-26T17:03:07.929Z,253.20
2019-01-26T17:05:36.546Z,246.45
2019-01-26T17:08:05.620Z,249.02
2019-01-26T17:10:34.614Z,246.40
2019-01-26T17:13:03.279Z,240.87
2019-01-26T17:15:31.906Z,226.85
2019-01-26T17:18:00.984Z,229.63
2019-01-26T17:20:34.905Z,276.85
2019-01-26T17:23:03.658Z,325.22
2019-01-26T17:25:32.658Z,423.05
2019-01-26T17:28:01.275Z,565.98
2019-01-26T17:30:32.780Z,630.70
2019-01-26T17:33:07.351Z,618.00
2019-01-26T17:35:32.443Z,638.77
2019-01-26T17:38:05.902Z,458.10
2019-01-26T17:40:34.610Z,615.08
2019-01-26T17:43:03.493Z,604.27
2019-01-26T17:45:36.067Z,573.67
2019-01-26T17:48:05.054Z,548.20
2019-01-26T17:50:33.656Z,378.90
2019-01-26T17:53:02.578Z,349.82
2019-01-26T17:55:31.175Z,350.95
2019-01-26T17:58:00.102Z,346.55
2019-01-26T18:00:44.870Z,333.20
2019-01-26T18:03:13.551Z,334.57
2019-01-26T18:05:42.170Z,347.55
2019-01-26T18:08:10.790Z,639.25
2019-01-26T18:10:40.771Z,817.88
2019-01-26T18:13:09.469Z,857.13
2019-01-26T18:15:38.460Z,1020.97
2019-01-26T18:18:07.218Z,1037.60
2019-01-26T18:25:35.469Z,956.30
2019-01-26T18:28:04.235Z,951.42
2019-01-26T18:33:01.019Z,931.17
2019-01-26T18:35:29.767Z,901.28
2019-01-26T18:37:58.499Z,886.60
2019-01-26T18:42:55.102Z,882.77
2019-01-26T18:47:53.049Z,836.75
2019-01-26T18:50:24.053Z,980.33
2019-01-26T18:52:53.069Z,1109.88
2019-01-26T18:55:21.836Z,1073.95
2019-01-26T19:00:26.955Z,1145.80
2019-01-26T19:02:59.423Z,1148.68
2019-01-26T19:05:28.995Z,1145.88
2019-01-26T19:07:57.629Z,1147.58
2019-01-26T19:10:28.678Z,1105.45
2019-01-26T19:12:57.356Z,1117.08
2019-01-26T19:17:54.292Z,1120.15
2019-01-26T19:20:23.590Z,1087.28
2019-01-26T19:22:52.479Z,1046.70
2019-01-26T19:25:21.263Z,1059.65
2019-01-26T19:30:19.542Z,999.63
2019-01-26T19:32:48.411Z,1027.40
2019-01-26T19:37:46.085Z,1021.50
2019-01-26T19:40:19.423Z,1032.78
2019-01-26T19:42:48.483Z,1013.15
2019-01-26T19:45:19.665Z,985.75
2019-01-26T19:47:48.434Z,961.22
2019-01-26T19:52:46.344Z,965.10
2019-01-26T19:55:16.073Z,952.20
2019-01-26T19:57:44.871Z,949.80
2019-01-26T20:02:41.822Z,942.77
2019-01-26T20:05:12.577Z,924.30
2019-01-26T20:07:41.253Z,922.98
2019-01-26T20:10:10.222Z,916.23
2019-01-26T20:12:38.956Z,913.20
2019-01-26T20:15:11.107Z,912.03
2019-01-26T20:17:40.102Z,896.70
2019-01-26T20:20:11.465Z,884.80
2019-01-26T20:22:40.086Z,886.52
2019-01-26T20:25:08.821Z,844.40
2019-01-26T20:30:07.412Z,1012.83
2019-01-26T20:32:36.816Z,1082.53
2019-01-26T20:35:05.971Z,1212.48
2019-01-26T20:37:35.010Z,746.90
2019-01-26T20:40:05.454Z,739.05
2019-01-26T20:42:34.613Z,742.05
2019-01-26T20:45:03.921Z,736.95
2019-01-26T20:47:32.543Z,681.70
2019-01-26T20:50:01.283Z,695.08
2019-01-26T20:54:58.262Z,645.62
2019-01-26T20:57:27.062Z,718.48
2019-01-26T21:02:23.580Z,672.00
2019-01-26T21:04:52.313Z,681.42
2019-01-26T21:07:21.006Z,671.17
2019-01-26T21:09:49.708Z,653.15
2019-01-26T21:14:46.523Z,634.70
2019-01-26T21:17:15.311Z,633.58
2019-01-26T21:22:12.267Z,599.90
2019-01-26T21:24:41.434Z,601.75
2019-01-26T21:27:10.380Z,587.08
2019-01-26T21:29:39.114Z,601.70
2019-01-26T21:34:36.183Z,727.60
2019-01-26T21:37:06.129Z,676.95
2019-01-26T21:39:35.555Z,640.10
2019-01-26T21:42:04.736Z,667.00
2019-01-26T21:44:33.505Z,657.73
2019-01-26T21:49:30.430Z,632.83
2019-01-26T21:54:27.688Z,608.42
2019-01-26T21:56:56.545Z,609.37
2019-01-26T22:01:53.129Z,563.33
2019-01-26T22:06:50.339Z,858.17
2019-01-26T22:09:19.911Z,794.92
2019-01-26T22:11:48.808Z,982.95
2019-01-26T22:14:17.790Z,1082.20
2019-01-26T22:16:47.103Z,1054.83
2019-01-26T22:19:21.780Z,1034.55
2019-01-26T22:21:46.441Z,1012.70
2019-01-26T22:26:43.224Z,753.75
2019-01-26T22:29:11.966Z,950.55
2019-01-26T22:36:37.222Z,872.72
2019-01-26T22:41:36.538Z,865.23
2019-01-26T22:44:05.700Z,865.98
2019-01-26T22:46:34.430Z,943.15
2019-01-26T22:49:03.091Z,1155.75
2019-01-26T22:53:59.971Z,1227.65
2019-01-26T22:56:28.775Z,1176.15
2019-01-26T22:58:57.546Z,1176.83
2019-01-26T23:01:32.284Z,1243.75
2019-01-26T23:04:48.503Z,1359.25
2019-01-26T23:07:35.446Z,1245.35
2019-01-26T23:10:28.932Z,1138.63
2019-01-26T23:13:18.602Z,1138.58
2019-01-26T23:16:31.822Z,1124.55
2019-01-26T23:19:10.427Z,1087.73
2019-01-26T23:24:39.476Z,1080.48
2019-01-26T23:27:32.462Z,1076.08
2019-01-26T23:30:26.380Z,1034.50
2019-01-26T23:32:58.042Z,1003.35
2019-01-26T23:35:26.753Z,1338.20
2019-01-26T23:40:23.354Z,1553.33
2019-01-26T23:42:52.563Z,1266.85
2019-01-26T23:45:21.524Z,1449.45
2019-01-26T23:47:50.292Z,1315.55
2019-01-26T23:50:18.923Z,1288.25
2019-01-26T23:55:15.617Z,1243.87
2019-01-26T23:57:44.410Z,1209.83
